sensor_id;sensor_type;location;lat;lon;timestamp;P1;durP1;ratioP1;P2;durP2;ratioP2
43042;SDS011;28667;50.758;6.096;2022-09-01T00:01:36;3.13;;;2.30;;
43042;SDS011;28667;50.758;6.096;2022-09-01T00:04:07;2.92;;;2.42;;
43042;SDS011;28667;50.758;6.096;2022-09-01T00:06:35;3.25;;;2.80;;
43042;SDS011;28667;50.758;6.096;2022-09-01T00:09:05;4.30;;;2.65;;
43042;SDS011;28667;50.758;6.096;2022-09-01T00:11:33;2.67;;;2.42;;
43042;SDS011;28667;50.758;6.096;2022-09-01T00:14:01;3.80;;;2.83;;
43042;SDS011;28667;50.758;6.096;2022-09-01T00:16:29;2.70;;;2.45;;
43042;SDS011;28667;50.758;6.096;2022-09-01T00:18:55;3.30;;;2.78;;
43042;SDS011;28667;50.758;6.096;2022-09-01T00:21:29;2.80;;;2.60;;
43042;SDS011;28667;50.758;6.096;2022-09-01T00:23:58;3.63;;;2.55;;
43042;SDS011;28667;50.758;6.096;2022-09-01T00:26:26;3.47;;;3.17;;
43042;SDS011;28667;50.758;6.096;2022-09-01T00:28:52;3.20;;;2.70;;
43042;SDS011;28667;50.758;6.096;2022-09-01T00:31:19;3.58;;;3.17;;
43042;SDS011;28667;50.758;6.096;2022-09-01T00:33:47;3.03;;;2.50;;
43042;SDS011;28667;50.758;6.096;2022-09-01T00:36:14;3.50;;;2.70;;
43042;SDS011;28667;50.758;6.096;2022-09-01T00:38:45;2.95;;;2.50;;
43042;SDS011;28667;50.758;6.096;2022-09-01T00:41:12;2.60;;;2.40;;
43042;SDS011;28667;50.758;6.096;2022-09-01T00:43:42;2.60;;;2.40;;
43042;SDS011;28667;50.758;6.096;2022-09-01T00:46:25;2.92;;;2.63;;
43042;SDS011;28667;50.758;6.096;2022-09-01T00:49:08;3.85;;;2.85;;
43042;SDS011;28667;50.758;6.096;2022-09-01T00:51:39;3.22;;;2.85;;
43042;SDS011;28667;50.758;6.096;2022-09-01T00:54:11;3.05;;;2.67;;
43042;SDS011;28667;50.758;6.096;2022-09-01T00:56:40;3.83;;;2.55;;
43042;SDS011;28667;50.758;6.096;2022-09-01T00:59:07;2.65;;;2.45;;
43042;SDS011;28667;50.758;6.096;2022-09-01T01:01:36;4.15;;;2.67;;
43042;SDS011;28667;50.758;6.096;2022-09-01T01:04:03;8.35;;;3.38;;
43042;SDS011;28667;50.758;6.096;2022-09-01T01:06:31;4.25;;;2.75;;
43042;SDS011;28667;50.758;6.096;2022-09-01T01:08:59;5.10;;;3.00;;
43042;SDS011;28667;50.758;6.096;2022-09-01T01:11:28;6.00;;;2.53;;
43042;SDS011;28667;50.758;6.096;2022-09-01T01:14:06;3.25;;;2.95;;
43042;SDS011;28667;50.758;6.096;2022-09-01T01:16:40;2.95;;;2.65;;
43042;SDS011;28667;50.758;6.096;2022-09-01T01:19:10;4.32;;;2.80;;
43042;SDS011;28667;50.758;6.096;2022-09-01T01:22:15;4.18;;;3.33;;
43042;SDS011;28667;50.758;6.096;2022-09-01T01:25:10;5.85;;;2.80;;
43042;SDS011;28667;50.758;6.096;2022-09-01T01:27:38;2.97;;;2.65;;
43042;SDS011;28667;50.758;6.096;2022-09-01T01:30:07;3.58;;;2.80;;
43042;SDS011;28667;50.758;6.096;2022-09-01T01:32:36;5.72;;;3.15;;
43042;SDS011;28667;50.758;6.096;2022-09-01T01:35:09;3.83;;;3.10;;
43042;SDS011;28667;50.758;6.096;2022-09-01T01:37:44;5.80;;;3.17;;
43042;SDS011;28667;50.758;6.096;2022-09-01T01:40:16;5.40;;;3.05;;
43042;SDS011;28667;50.758;6.096;2022-09-01T01:45:42;3.45;;;2.70;;
43042;SDS011;28667;50.758;6.096;2022-09-01T01:48:08;3.30;;;3.00;;
43042;SDS011;28667;50.758;6.096;2022-09-01T01:50:35;3.42;;;3.13;;
43042;SDS011;28667;50.758;6.096;2022-09-01T01:53:04;4.05;;;3.65;;
43042;SDS011;28667;50.758;6.096;2022-09-01T01:55:34;5.05;;;3.17;;
43042;SDS011;28667;50.758;6.096;2022-09-01T01:58:00;3.88;;;3.17;;
43042;SDS011;28667;50.758;6.096;2022-09-01T02:00:29;6.07;;;2.97;;
43042;SDS011;28667;50.758;6.096;2022-09-01T02:02:59;6.53;;;3.35;;
43042;SDS011;28667;50.758;6.096;2022-09-01T02:05:30;4.22;;;3.53;;
43042;SDS011;28667;50.758;6.096;2022-09-01T02:08:02;4.15;;;3.05;;
43042;SDS011;28667;50.758;6.096;2022-09-01T02:10:32;3.80;;;3.40;;
43042;SDS011;28667;50.758;6.096;2022-09-01T02:13:02;3.70;;;3.03;;
43042;SDS011;28667;50.758;6.096;2022-09-01T02:15:33;5.15;;;2.72;;
43042;SDS011;28667;50.758;6.096;2022-09-01T02:18:14;3.63;;;3.33;;
43042;SDS011;28667;50.758;6.096;2022-09-01T02:20:43;5.82;;;3.15;;
43042;SDS011;28667;50.758;6.096;2022-09-01T02:23:12;3.60;;;3.30;;
43042;SDS011;28667;50.758;6.096;2022-09-01T02:25:41;3.72;;;3.15;;
43042;SDS011;28667;50.758;6.096;2022-09-01T02:28:10;3.75;;;3.10;;
43042;SDS011;28667;50.758;6.096;2022-09-01T02:30:45;4.15;;;3.08;;
43042;SDS011;28667;50.758;6.096;2022-09-01T02:33:14;3.28;;;2.97;;
43042;SDS011;28667;50.758;6.096;2022-09-01T02:35:48;6.93;;;4.45;;
43042;SDS011;28667;50.758;6.096;2022-09-01T02:38:19;3.35;;;3.05;;
43042;SDS011;28667;50.758;6.096;2022-09-01T02:40:50;5.82;;;3.50;;
43042;SDS011;28667;50.758;6.096;2022-09-01T02:43:18;4.13;;;3.63;;
43042;SDS011;28667;50.758;6.096;2022-09-01T02:45:48;3.50;;;3.20;;
43042;SDS011;28667;50.758;6.096;2022-09-01T02:48:18;4.00;;;3.20;;
43042;SDS011;28667;50.758;6.096;2022-09-01T02:50:48;3.58;;;3.28;;
43042;SDS011;28667;50.758;6.096;2022-09-01T02:53:14;3.75;;;3.25;;
43042;SDS011;28667;50.758;6.096;2022-09-01T02:55:42;3.72;;;3.42;;
43042;SDS011;28667;50.758;6.096;2022-09-01T02:58:08;3.50;;;3.20;;
43042;SDS011;28667;50.758;6.096;2022-09-01T03:00:42;3.38;;;3.08;;
43042;SDS011;28667;50.758;6.096;2022-09-01T03:03:08;3.85;;;3.10;;
43042;SDS011;28667;50.758;6.096;2022-09-01T03:05:37;4.72;;;3.22;;
43042;SDS011;28667;50.758;6.096;2022-09-01T03:08:11;2.90;;;2.70;;
43042;SDS011;28667;50.758;6.096;2022-09-01T03:10:41;4.07;;;3.33;;
43042;SDS011;28667;50.758;6.096;2022-09-01T03:15:40;3.40;;;3.10;;
43042;SDS011;28667;50.758;6.096;2022-09-01T03:18:08;3.13;;;2.83;;
43042;SDS011;28667;50.758;6.096;2022-09-01T03:20:37;3.85;;;3.00;;
43042;SDS011;28667;50.758;6.096;2022-09-01T03:23:08;3.92;;;3.28;;
43042;SDS011;28667;50.758;6.096;2022-09-01T03:25:40;3.60;;;3.20;;
43042;SDS011;28667;50.758;6.096;2022-09-01T03:28:08;3.33;;;3.03;;
43042;SDS011;28667;50.758;6.096;2022-09-01T03:30:37;4.82;;;3.30;;
43042;SDS011;28667;50.758;6.096;2022-09-01T03:33:08;3.60;;;2.72;;
43042;SDS011;28667;50.758;6.096;2022-09-01T03:35:35;3.92;;;3.30;;
43042;SDS011;28667;50.758;6.096;2022-09-01T03:38:01;3.35;;;2.72;;
43042;SDS011;28667;50.758;6.096;2022-09-01T03:40:31;3.60;;;3.30;;
43042;SDS011;28667;50.758;6.096;2022-09-01T03:42:59;3.92;;;3.10;;
43042;SDS011;28667;50.758;6.096;2022-09-01T03:45:27;4.78;;;3.10;;
43042;SDS011;28667;50.758;6.096;2022-09-01T03:47:54;3.47;;;3.13;;
43042;SDS011;28667;50.758;6.096;2022-09-01T03:50:22;5.05;;;3.28;;
43042;SDS011;28667;50.758;6.096;2022-09-01T03:55:19;4.57;;;3.30;;
43042;SDS011;28667;50.758;6.096;2022-09-01T03:57:50;4.50;;;3.17;;
43042;SDS011;28667;50.758;6.096;2022-09-01T04:00:18;4.20;;;3.00;;
43042;SDS011;28667;50.758;6.096;2022-09-01T04:02:49;3.63;;;3.00;;
43042;SDS011;28667;50.758;6.096;2022-09-01T04:05:17;3.75;;;3.13;;
43042;SDS011;28667;50.758;6.096;2022-09-01T04:07:46;5.50;;;2.63;;
43042;SDS011;28667;50.758;6.096;2022-09-01T04:10:14;6.18;;;3.00;;
43042;SDS011;28667;50.758;6.096;2022-09-01T04:12:42;3.22;;;2.92;;
43042;SDS011;28667;50.758;6.096;2022-09-01T04:15:10;3.60;;;2.78;;
43042;SDS011;28667;50.758;6.096;2022-09-01T04:17:38;3.58;;;3.28;;
43042;SDS011;28667;50.758;6.096;2022-09-01T04:20:23;3.20;;;2.90;;
43042;SDS011;28667;50.758;6.096;2022-09-01T04:22:50;3.53;;;2.80;;
43042;SDS011;28667;50.758;6.096;2022-09-01T04:25:17;4.82;;;3.25;;
43042;SDS011;28667;50.758;6.096;2022-09-01T04:27:49;5.10;;;2.92;;
43042;SDS011;28667;50.758;6.096;2022-09-01T04:30:17;3.90;;;3.50;;
43042;SDS011;28667;50.758;6.096;2022-09-01T04:32:51;5.20;;;3.42;;
43042;SDS011;28667;50.758;6.096;2022-09-01T04:35:20;4.03;;;3.63;;
43042;SDS011;28667;50.758;6.096;2022-09-01T04:37:52;5.20;;;2.80;;
43042;SDS011;28667;50.758;6.096;2022-09-01T04:40:18;3.58;;;3.28;;
43042;SDS011;28667;50.758;6.096;2022-09-01T04:42:48;3.22;;;2.92;;
43042;SDS011;28667;50.758;6.096;2022-09-01T04:45:15;3.60;;;3.30;;
43042;SDS011;28667;50.758;6.096;2022-09-01T04:47:44;5.45;;;3.80;;
43042;SDS011;28667;50.758;6.096;2022-09-01T04:50:15;5.30;;;3.17;;
43042;SDS011;28667;50.758;6.096;2022-09-01T04:53:14;3.85;;;3.53;;
43042;SDS011;28667;50.758;6.096;2022-09-01T04:55:46;4.00;;;3.28;;
43042;SDS011;28667;50.758;6.096;2022-09-01T04:58:15;5.13;;;3.63;;
43042;SDS011;28667;50.758;6.096;2022-09-01T05:00:43;3.58;;;3.35;;
43042;SDS011;28667;50.758;6.096;2022-09-01T05:03:14;3.60;;;3.30;;
43042;SDS011;28667;50.758;6.096;2022-09-01T05:06:14;4.15;;;2.80;;
43042;SDS011;28667;50.758;6.096;2022-09-01T05:08:48;4.73;;;3.20;;
43042;SDS011;28667;50.758;6.096;2022-09-01T05:11:31;3.55;;;3.22;;
43042;SDS011;28667;50.758;6.096;2022-09-01T05:14:05;3.20;;;2.90;;
43042;SDS011;28667;50.758;6.096;2022-09-01T05:16:33;5.15;;;3.67;;
43042;SDS011;28667;50.758;6.096;2022-09-01T05:19:00;3.85;;;3.45;;
43042;SDS011;28667;50.758;6.096;2022-09-01T05:21:31;4.78;;;3.28;;
43042;SDS011;28667;50.758;6.096;2022-09-01T05:23:58;5.00;;;4.13;;
43042;SDS011;28667;50.758;6.096;2022-09-01T05:26:30;2.97;;;2.78;;
43042;SDS011;28667;50.758;6.096;2022-09-01T05:29:00;3.75;;;3.20;;
43042;SDS011;28667;50.758;6.096;2022-09-01T05:31:29;5.07;;;3.30;;
43042;SDS011;28667;50.758;6.096;2022-09-01T05:33:59;3.95;;;3.55;;
43042;SDS011;28667;50.758;6.096;2022-09-01T05:36:27;3.22;;;3.03;;
43042;SDS011;28667;50.758;6.096;2022-09-01T05:38:57;4.07;;;3.78;;
43042;SDS011;28667;50.758;6.096;2022-09-01T05:41:23;4.18;;;2.90;;
43042;SDS011;28667;50.758;6.096;2022-09-01T05:43:50;3.15;;;2.95;;
43042;SDS011;28667;50.758;6.096;2022-09-01T05:46:18;4.03;;;3.55;;
43042;SDS011;28667;50.758;6.096;2022-09-01T05:48:46;4.25;;;3.42;;
43042;SDS011;28667;50.758;6.096;2022-09-01T05:51:16;3.50;;;3.20;;
43042;SDS011;28667;50.758;6.096;2022-09-01T05:53:45;3.47;;;3.15;;
43042;SDS011;28667;50.758;6.096;2022-09-01T05:56:12;3.70;;;3.40;;
43042;SDS011;28667;50.758;6.096;2022-09-01T05:58:39;4.13;;;3.00;;
43042;SDS011;28667;50.758;6.096;2022-09-01T06:01:09;3.00;;;2.80;;
43042;SDS011;28667;50.758;6.096;2022-09-01T06:03:42;3.40;;;2.75;;
43042;SDS011;28667;50.758;6.096;2022-09-01T06:06:20;3.70;;;3.00;;
43042;SDS011;28667;50.758;6.096;2022-09-01T06:08:48;3.13;;;2.83;;
43042;SDS011;28667;50.758;6.096;2022-09-01T06:11:16;5.00;;;3.72;;
43042;SDS011;28667;50.758;6.096;2022-09-01T06:13:44;3.97;;;3.60;;
43042;SDS011;28667;50.758;6.096;2022-09-01T06:16:15;4.38;;;2.67;;
43042;SDS011;28667;50.758;6.096;2022-09-01T06:18:42;3.50;;;3.15;;
43042;SDS011;28667;50.758;6.096;2022-09-01T06:21:09;7.28;;;3.25;;
43042;SDS011;28667;50.758;6.096;2022-09-01T06:23:42;2.65;;;2.45;;
43042;SDS011;28667;50.758;6.096;2022-09-01T06:26:17;3.22;;;2.92;;
43042;SDS011;28667;50.758;6.096;2022-09-01T06:28:45;3.40;;;2.80;;
43042;SDS011;28667;50.758;6.096;2022-09-01T06:31:13;2.90;;;2.70;;
43042;SDS011;28667;50.758;6.096;2022-09-01T06:33:39;2.80;;;2.60;;
43042;SDS011;28667;50.758;6.096;2022-09-01T06:36:07;2.67;;;2.45;;
43042;SDS011;28667;50.758;6.096;2022-09-01T06:38:34;3.05;;;2.85;;
43042;SDS011;28667;50.758;6.096;2022-09-01T06:41:04;2.60;;;2.40;;
43042;SDS011;28667;50.758;6.096;2022-09-01T06:43:38;3.20;;;2.90;;
43042;SDS011;28667;50.758;6.096;2022-09-01T06:46:08;2.83;;;2.58;;
43042;SDS011;28667;50.758;6.096;2022-09-01T06:48:36;3.50;;;2.63;;
43042;SDS011;28667;50.758;6.096;2022-09-01T06:51:09;3.80;;;2.97;;
43042;SDS011;28667;50.758;6.096;2022-09-01T06:53:39;2.45;;;2.25;;
43042;SDS011;28667;50.758;6.096;2022-09-01T06:56:10;2.72;;;2.20;;
43042;SDS011;28667;50.758;6.096;2022-09-01T06:58:41;2.00;;;1.80;;
43042;SDS011;28667;50.758;6.096;2022-09-01T07:01:14;5.20;;;2.58;;
43042;SDS011;28667;50.758;6.096;2022-09-01T07:03:45;6.22;;;2.50;;
43042;SDS011;28667;50.758;6.096;2022-09-01T07:06:21;2.20;;;2.00;;
43042;SDS011;28667;50.758;6.096;2022-09-01T07:09:10;1.90;;;1.70;;
43042;SDS011;28667;50.758;6.096;2022-09-01T07:11:39;2.10;;;1.90;;
43042;SDS011;28667;50.758;6.096;2022-09-01T07:14:05;1.77;;;1.67;;
43042;SDS011;28667;50.758;6.096;2022-09-01T07:16:34;3.67;;;1.90;;
43042;SDS011;28667;50.758;6.096;2022-09-01T07:19:06;1.67;;;1.40;;
43042;SDS011;28667;50.758;6.096;2022-09-01T07:21:38;5.22;;;1.60;;
43042;SDS011;28667;50.758;6.096;2022-09-01T07:24:06;1.38;;;1.27;;
43042;SDS011;28667;50.758;6.096;2022-09-01T07:26:33;1.67;;;1.58;;
43042;SDS011;28667;50.758;6.096;2022-09-01T07:29:00;1.67;;;1.50;;
43042;SDS011;28667;50.758;6.096;2022-09-01T07:31:30;1.83;;;1.73;;
43042;SDS011;28667;50.758;6.096;2022-09-01T07:34:04;1.33;;;1.15;;
43042;SDS011;28667;50.758;6.096;2022-09-01T07:36:38;1.95;;;1.40;;
43042;SDS011;28667;50.758;6.096;2022-09-01T07:39:06;1.48;;;1.20;;
43042;SDS011;28667;50.758;6.096;2022-09-01T07:41:32;1.98;;;1.77;;
43042;SDS011;28667;50.758;6.096;2022-09-01T07:44:36;2.53;;;1.20;;
43042;SDS011;28667;50.758;6.096;2022-09-01T07:47:29;1.40;;;1.30;;
43042;SDS011;28667;50.758;6.096;2022-09-01T07:49:56;1.30;;;1.20;;
43042;SDS011;28667;50.758;6.096;2022-09-01T07:52:24;1.42;;;1.30;;
43042;SDS011;28667;50.758;6.096;2022-09-01T07:54:55;1.30;;;1.20;;
43042;SDS011;28667;50.758;6.096;2022-09-01T07:57:22;1.40;;;1.30;;
43042;SDS011;28667;50.758;6.096;2022-09-01T07:59:48;1.33;;;1.23;;
43042;SDS011;28667;50.758;6.096;2022-09-01T08:02:18;1.42;;;1.17;;
43042;SDS011;28667;50.758;6.096;2022-09-01T08:04:46;1.52;;;1.20;;
43042;SDS011;28667;50.758;6.096;2022-09-01T08:07:14;1.13;;;1.10;;
43042;SDS011;28667;50.758;6.096;2022-09-01T08:09:40;1.50;;;1.20;;
43042;SDS011;28667;50.758;6.096;2022-09-01T08:12:07;1.30;;;1.20;;
43042;SDS011;28667;50.758;6.096;2022-09-01T08:14:40;3.38;;;1.38;;
43042;SDS011;28667;50.758;6.096;2022-09-01T08:17:06;1.63;;;1.25;;
43042;SDS011;28667;50.758;6.096;2022-09-01T08:19:32;1.63;;;0.90;;
43042;SDS011;28667;50.758;6.096;2022-09-01T08:22:09;1.33;;;1.20;;
43042;SDS011;28667;50.758;6.096;2022-09-01T08:24:47;1.52;;;1.10;;
43042;SDS011;28667;50.758;6.096;2022-09-01T08:27:14;2.03;;;1.35;;
43042;SDS011;28667;50.758;6.096;2022-09-01T08:29:40;2.58;;;1.35;;
43042;SDS011;28667;50.758;6.096;2022-09-01T08:32:07;1.33;;;1.23;;
43042;SDS011;28667;50.758;6.096;2022-09-01T08:34:35;1.70;;;1.52;;
43042;SDS011;28667;50.758;6.096;2022-09-01T08:37:02;1.60;;;1.15;;
43042;SDS011;28667;50.758;6.096;2022-09-01T08:39:31;1.52;;;1.00;;
43042;SDS011;28667;50.758;6.096;2022-09-01T08:42:01;1.10;;;1.10;;
43042;SDS011;28667;50.758;6.096;2022-09-01T08:47:28;1.05;;;1.00;;
43042;SDS011;28667;50.758;6.096;2022-09-01T08:49:55;1.55;;;1.45;;
43042;SDS011;28667;50.758;6.096;2022-09-01T08:56:03;1.50;;;1.38;;
43042;SDS011;28667;50.758;6.096;2022-09-01T08:58:30;1.98;;;1.60;;
43042;SDS011;28667;50.758;6.096;2022-09-01T09:01:24;1.45;;;1.25;;
43042;SDS011;28667;50.758;6.096;2022-09-01T09:08:58;0.90;;;0.90;;
43042;SDS011;28667;50.758;6.096;2022-09-01T09:14:31;2.63;;;1.55;;
43042;SDS011;28667;50.758;6.096;2022-09-01T09:16:59;8.18;;;2.10;;
43042;SDS011;28667;50.758;6.096;2022-09-01T09:19:30;1.50;;;1.40;;
43042;SDS011;28667;50.758;6.096;2022-09-01T09:22:03;1.40;;;1.25;;
43042;SDS011;28667;50.758;6.096;2022-09-01T09:24:51;3.50;;;1.10;;
43042;SDS011;28667;50.758;6.096;2022-09-01T09:30:13;1.42;;;1.30;;
43042;SDS011;28667;50.758;6.096;2022-09-01T09:32:52;2.10;;;1.25;;
43042;SDS011;28667;50.758;6.096;2022-09-01T09:43:23;1.30;;;1.20;;
43042;SDS011;28667;50.758;6.096;2022-09-01T09:45:50;3.97;;;1.85;;
43042;SDS011;28667;50.758;6.096;2022-09-01T09:49:17;1.13;;;1.13;;
43042;SDS011;28667;50.758;6.096;2022-09-01T09:52:10;1.17;;;1.08;;
43042;SDS011;28667;50.758;6.096;2022-09-01T09:54:57;1.70;;;0.98;;
43042;SDS011;28667;50.758;6.096;2022-09-01T09:57:25;1.60;;;1.13;;
43042;SDS011;28667;50.758;6.096;2022-09-01T09:59:56;2.08;;;0.88;;
43042;SDS011;28667;50.758;6.096;2022-09-01T10:02:38;1.25;;;1.02;;
43042;SDS011;28667;50.758;6.096;2022-09-01T10:08:06;1.88;;;1.00;;
43042;SDS011;28667;50.758;6.096;2022-09-01T10:10:48;2.05;;;1.17;;
43042;SDS011;28667;50.758;6.096;2022-09-01T10:13:16;3.53;;;1.27;;
43042;SDS011;28667;50.758;6.096;2022-09-01T10:15:51;1.48;;;1.10;;
43042;SDS011;28667;50.758;6.096;2022-09-01T10:18:21;1.95;;;1.55;;
43042;SDS011;28667;50.758;6.096;2022-09-01T10:23:51;1.05;;;0.98;;
43042;SDS011;28667;50.758;6.096;2022-09-01T10:28:58;1.00;;;1.00;;
43042;SDS011;28667;50.758;6.096;2022-09-01T10:31:31;1.80;;;1.67;;
43042;SDS011;28667;50.758;6.096;2022-09-01T10:33:59;4.28;;;1.08;;
43042;SDS011;28667;50.758;6.096;2022-09-01T10:36:27;1.08;;;1.00;;
43042;SDS011;28667;50.758;6.096;2022-09-01T10:38:54;0.95;;;0.85;;
43042;SDS011;28667;50.758;6.096;2022-09-01T10:42:07;1.05;;;0.90;;
43042;SDS011;28667;50.758;6.096;2022-09-01T10:46:46;1.33;;;0.70;;
43042;SDS011;28667;50.758;6.096;2022-09-01T10:49:21;0.85;;;0.85;;
43042;SDS011;28667;50.758;6.096;2022-09-01T10:52:03;0.80;;;0.80;;
43042;SDS011;28667;50.758;6.096;2022-09-01T10:57:18;1.02;;;0.90;;
43042;SDS011;28667;50.758;6.096;2022-09-01T11:00:51;1.40;;;1.00;;
43042;SDS011;28667;50.758;6.096;2022-09-01T11:13:45;1.52;;;1.08;;
43042;SDS011;28667;50.758;6.096;2022-09-01T11:18:52;1.00;;;0.60;;
43042;SDS011;28667;50.758;6.096;2022-09-01T11:21:22;1.60;;;0.93;;
43042;SDS011;28667;50.758;6.096;2022-09-01T11:26:58;0.70;;;0.70;;
43042;SDS011;28667;50.758;6.096;2022-09-01T11:32:31;0.50;;;0.50;;
43042;SDS011;28667;50.758;6.096;2022-09-01T11:35:01;3.30;;;0.85;;
43042;SDS011;28667;50.758;6.096;2022-09-01T11:37:31;0.88;;;0.73;;
43042;SDS011;28667;50.758;6.096;2022-09-01T11:39:58;1.10;;;0.77;;
43042;SDS011;28667;50.758;6.096;2022-09-01T11:42:32;1.50;;;1.20;;
43042;SDS011;28667;50.758;6.096;2022-09-01T11:47:44;3.72;;;0.80;;
43042;SDS011;28667;50.758;6.096;2022-09-01T11:55:37;0.80;;;0.70;;
43042;SDS011;28667;50.758;6.096;2022-09-01T12:01:17;0.60;;;0.60;;
43042;SDS011;28667;50.758;6.096;2022-09-01T12:03:56;0.85;;;0.77;;
43042;SDS011;28667;50.758;6.096;2022-09-01T12:06:27;1.50;;;0.90;;
43042;SDS011;28667;50.758;6.096;2022-09-01T12:11:23;1.48;;;1.10;;
43042;SDS011;28667;50.758;6.096;2022-09-01T12:14:00;1.40;;;1.30;;
43042;SDS011;28667;50.758;6.096;2022-09-01T12:16:27;1.25;;;1.15;;
43042;SDS011;28667;50.758;6.096;2022-09-01T12:18:55;2.00;;;1.08;;
43042;SDS011;28667;50.758;6.096;2022-09-01T12:21:25;3.72;;;1.10;;
43042;SDS011;28667;50.758;6.096;2022-09-01T12:26:41;1.55;;;1.25;;
43042;SDS011;28667;50.758;6.096;2022-09-01T12:29:11;1.00;;;1.00;;
43042;SDS011;28667;50.758;6.096;2022-09-01T12:31:42;1.67;;;1.20;;
43042;SDS011;28667;50.758;6.096;2022-09-01T12:34:35;1.80;;;0.95;;
43042;SDS011;28667;50.758;6.096;2022-09-01T12:39:50;1.13;;;1.13;;
43042;SDS011;28667;50.758;6.096;2022-09-01T12:50:01;1.35;;;1.08;;
43042;SDS011;28667;50.758;6.096;2022-09-01T12:52:28;1.90;;;1.10;;
43042;SDS011;28667;50.758;6.096;2022-09-01T12:57:33;2.05;;;1.05;;
43042;SDS011;28667;50.758;6.096;2022-09-01T13:02:41;1.08;;;0.98;;
43042;SDS011;28667;50.758;6.096;2022-09-01T13:05:23;2.30;;;1.15;;
43042;SDS011;28667;50.758;6.096;2022-09-01T13:08:02;1.20;;;1.10;;
43042;SDS011;28667;50.758;6.096;2022-09-01T13:10:32;1.92;;;1.27;;
43042;SDS011;28667;50.758;6.096;2022-09-01T13:13:08;1.05;;;0.95;;
43042;SDS011;28667;50.758;6.096;2022-09-01T13:15:39;1.20;;;1.10;;
43042;SDS011;28667;50.758;6.096;2022-09-01T13:18:07;1.38;;;0.90;;
43042;SDS011;28667;50.758;6.096;2022-09-01T13:20:34;1.27;;;0.90;;
43042;SDS011;28667;50.758;6.096;2022-09-01T13:23:00;1.75;;;1.23;;
43042;SDS011;28667;50.758;6.096;2022-09-01T13:25:27;1.10;;;1.00;;
43042;SDS011;28667;50.758;6.096;2022-09-01T13:27:53;1.52;;;1.42;;
43042;SDS011;28667;50.758;6.096;2022-09-01T13:30:21;1.17;;;1.00;;
43042;SDS011;28667;50.758;6.096;2022-09-01T13:32:49;2.63;;;1.00;;
43042;SDS011;28667;50.758;6.096;2022-09-01T13:35:17;1.50;;;0.95;;
43042;SDS011;28667;50.758;6.096;2022-09-01T13:37:45;2.40;;;1.05;;
43042;SDS011;28667;50.758;6.096;2022-09-01T13:40:14;0.80;;;0.80;;
43042;SDS011;28667;50.758;6.096;2022-09-01T13:42:42;1.75;;;1.10;;
43042;SDS011;28667;50.758;6.096;2022-09-01T13:45:19;0.90;;;0.90;;
43042;SDS011;28667;50.758;6.096;2022-09-01T13:47:49;2.58;;;1.17;;
43042;SDS011;28667;50.758;6.096;2022-09-01T13:50:17;3.00;;;1.08;;
43042;SDS011;28667;50.758;6.096;2022-09-01T13:52:47;1.65;;;1.10;;
43042;SDS011;28667;50.758;6.096;2022-09-01T13:55:20;1.67;;;1.58;;
43042;SDS011;28667;50.758;6.096;2022-09-01T13:57:51;1.40;;;1.30;;
43042;SDS011;28667;50.758;6.096;2022-09-01T14:00:23;1.00;;;1.00;;
43042;SDS011;28667;50.758;6.096;2022-09-01T14:02:52;4.28;;;1.02;;
43042;SDS011;28667;50.758;6.096;2022-09-01T14:05:25;1.70;;;1.50;;
43042;SDS011;28667;50.758;6.096;2022-09-01T14:07:53;1.40;;;1.30;;
43042;SDS011;28667;50.758;6.096;2022-09-01T14:10:21;1.33;;;1.23;;
43042;SDS011;28667;50.758;6.096;2022-09-01T14:12:48;1.67;;;1.17;;
43042;SDS011;28667;50.758;6.096;2022-09-01T14:15:15;1.30;;;1.20;;
43042;SDS011;28667;50.758;6.096;2022-09-01T14:17:44;1.50;;;1.40;;
43042;SDS011;28667;50.758;6.096;2022-09-01T14:20:13;1.25;;;1.20;;
43042;SDS011;28667;50.758;6.096;2022-09-01T14:22:43;1.20;;;1.10;;
43042;SDS011;28667;50.758;6.096;2022-09-01T14:25:10;1.38;;;1.27;;
43042;SDS011;28667;50.758;6.096;2022-09-01T14:27:37;2.65;;;1.35;;
43042;SDS011;28667;50.758;6.096;2022-09-01T14:30:04;1.42;;;1.10;;
43042;SDS011;28667;50.758;6.096;2022-09-01T14:32:33;2.22;;;1.40;;
43042;SDS011;28667;50.758;6.096;2022-09-01T14:35:00;1.20;;;1.10;;
43042;SDS011;28667;50.758;6.096;2022-09-01T14:37:27;1.40;;;1.30;;
43042;SDS011;28667;50.758;6.096;2022-09-01T14:39:54;2.25;;;1.02;;
43042;SDS011;28667;50.758;6.096;2022-09-01T14:42:22;2.67;;;1.33;;
43042;SDS011;28667;50.758;6.096;2022-09-01T14:44:50;1.55;;;1.13;;
43042;SDS011;28667;50.758;6.096;2022-09-01T14:47:17;3.22;;;1.10;;
43042;SDS011;28667;50.758;6.096;2022-09-01T14:49:43;1.02;;;1.00;;
43042;SDS011;28667;50.758;6.096;2022-09-01T14:52:09;1.98;;;1.00;;
43042;SDS011;28667;50.758;6.096;2022-09-01T14:54:36;1.27;;;1.17;;
43042;SDS011;28667;50.758;6.096;2022-09-01T14:57:04;2.03;;;1.30;;
43042;SDS011;28667;50.758;6.096;2022-09-01T14:59:31;1.17;;;0.82;;
43042;SDS011;28667;50.758;6.096;2022-09-01T15:01:57;1.25;;;1.00;;
43042;SDS011;28667;50.758;6.096;2022-09-01T15:04:24;1.30;;;1.20;;
43042;SDS011;28667;50.758;6.096;2022-09-01T15:06:54;1.30;;;1.20;;
43042;SDS011;28667;50.758;6.096;2022-09-01T15:09:20;1.73;;;1.17;;
43042;SDS011;28667;50.758;6.096;2022-09-01T15:11:46;1.30;;;1.20;;
43042;SDS011;28667;50.758;6.096;2022-09-01T15:14:13;1.38;;;1.17;;
43042;SDS011;28667;50.758;6.096;2022-09-01T15:16:39;1.42;;;1.33;;
43042;SDS011;28667;50.758;6.096;2022-09-01T15:19:06;1.45;;;1.30;;
43042;SDS011;28667;50.758;6.096;2022-09-01T15:21:34;1.98;;;1.23;;
43042;SDS011;28667;50.758;6.096;2022-09-01T15:24:01;1.27;;;1.17;;
43042;SDS011;28667;50.758;6.096;2022-09-01T15:26:28;1.20;;;0.98;;
43042;SDS011;28667;50.758;6.096;2022-09-01T15:28:55;4.20;;;1.50;;
43042;SDS011;28667;50.758;6.096;2022-09-01T15:31:22;1.27;;;1.17;;
43042;SDS011;28667;50.758;6.096;2022-09-01T15:33:53;1.80;;;1.20;;
43042;SDS011;28667;50.758;6.096;2022-09-01T15:36:21;1.67;;;1.20;;
43042;SDS011;28667;50.758;6.096;2022-09-01T15:38:48;1.50;;;1.20;;
43042;SDS011;28667;50.758;6.096;2022-09-01T15:41:15;1.30;;;1.20;;
43042;SDS011;28667;50.758;6.096;2022-09-01T15:46:26;1.35;;;1.00;;
43042;SDS011;28667;50.758;6.096;2022-09-01T15:49:04;1.55;;;1.17;;
43042;SDS011;28667;50.758;6.096;2022-09-01T15:51:35;1.52;;;0.90;;
43042;SDS011;28667;50.758;6.096;2022-09-01T15:54:04;2.55;;;1.00;;
43042;SDS011;28667;50.758;6.096;2022-09-01T15:56:31;1.35;;;1.20;;
43042;SDS011;28667;50.758;6.096;2022-09-01T15:58:58;1.17;;;1.08;;
43042;SDS011;28667;50.758;6.096;2022-09-01T16:01:26;2.13;;;1.40;;
43042;SDS011;28667;50.758;6.096;2022-09-01T16:03:54;1.25;;;1.15;;
43042;SDS011;28667;50.758;6.096;2022-09-01T16:06:21;1.33;;;1.23;;
43042;SDS011;28667;50.758;6.096;2022-09-01T16:08:49;1.17;;;0.90;;
43042;SDS011;28667;50.758;6.096;2022-09-01T16:11:19;2.30;;;1.15;;
43042;SDS011;28667;50.758;6.096;2022-09-01T16:13:48;2.15;;;1.38;;
43042;SDS011;28667;50.758;6.096;2022-09-01T16:18:51;1.70;;;1.60;;
43042;SDS011;28667;50.758;6.096;2022-09-01T16:23:55;1.65;;;1.55;;
43042;SDS011;28667;50.758;6.096;2022-09-01T16:26:21;1.52;;;1.23;;
43042;SDS011;28667;50.758;6.096;2022-09-01T16:28:52;2.00;;;1.30;;
43042;SDS011;28667;50.758;6.096;2022-09-01T16:31:23;2.45;;;1.35;;
43042;SDS011;28667;50.758;6.096;2022-09-01T16:33:52;1.55;;;1.45;;
43042;SDS011;28667;50.758;6.096;2022-09-01T16:41:50;1.27;;;1.17;;
43042;SDS011;28667;50.758;6.096;2022-09-01T17:01:25;1.48;;;1.38;;
43042;SDS011;28667;50.758;6.096;2022-09-01T17:09:42;0.95;;;0.90;;
43042;SDS011;28667;50.758;6.096;2022-09-01T17:15:03;1.95;;;1.20;;
43042;SDS011;28667;50.758;6.096;2022-09-01T17:20:09;1.48;;;1.13;;
43042;SDS011;28667;50.758;6.096;2022-09-01T17:22:38;1.35;;;1.25;;
43042;SDS011;28667;50.758;6.096;2022-09-01T17:25:22;1.48;;;1.38;;
43042;SDS011;28667;50.758;6.096;2022-09-01T17:28:01;1.73;;;1.38;;
43042;SDS011;28667;50.758;6.096;2022-09-01T17:30:33;1.33;;;1.23;;